sensor_id;sensor_type;location;lat;lon;timestamp;P1;durP1;ratioP1;P2;durP2;ratioP2
4758;SDS011;2393;50.560;12.636;2024-03-08T00:01:26;23.20;;;11.05;;
4758;SDS011;2393;50.560;12.636;2024-03-08T00:03:54;17.73;;;9.15;;
4758;SDS011;2393;50.560;12.636;2024-03-08T00:06:23;20.33;;;9.75;;
4758;SDS011;2393;50.560;12.636;2024-03-08T00:08:52;21.27;;;10.18;;
4758;SDS011;2393;50.560;12.636;2024-03-08T00:11:22;28.80;;;10.88;;
4758;SDS011;2393;50.560;12.636;2024-03-08T00:13:52;19.88;;;9.68;;
4758;SDS011;2393;50.560;12.636;2024-03-08T00:16:21;24.42;;;11.98;;
4758;SDS011;2393;50.560;12.636;2024-03-08T00:18:50;26.83;;;9.50;;
4758;SDS011;2393;50.560;12.636;2024-03-08T00:21:19;29.95;;;12.27;;
4758;SDS011;2393;50.560;12.636;2024-03-08T00:23:47;25.88;;;11.23;;
4758;SDS011;2393;50.560;12.636;2024-03-08T00:26:16;24.98;;;10.73;;
4758;SDS011;2393;50.560;12.636;2024-03-08T00:28:46;33.25;;;11.93;;
4758;SDS011;2393;50.560;12.636;2024-03-08T00:31:15;24.88;;;11.82;;
4758;SDS011;2393;50.560;12.636;2024-03-08T00:33:44;29.27;;;11.65;;
4758;SDS011;2393;50.560;12.636;2024-03-08T00:36:13;23.73;;;11.35;;
4758;SDS011;2393;50.560;12.636;2024-03-08T00:38:42;25.63;;;11.27;;
4758;SDS011;2393;50.560;12.636;2024-03-08T00:41:11;22.55;;;11.18;;
4758;SDS011;2393;50.560;12.636;2024-03-08T00:43:39;24.17;;;11.18;;
4758;SDS011;2393;50.560;12.636;2024-03-08T00:46:09;30.10;;;11.85;;
4758;SDS011;2393;50.560;12.636;2024-03-08T00:48:38;34.05;;;12.75;;
4758;SDS011;2393;50.560;12.636;2024-03-08T00:51:10;33.47;;;13.38;;
4758;SDS011;2393;50.560;12.636;2024-03-08T00:53:38;25.52;;;11.43;;
4758;SDS011;2393;50.560;12.636;2024-03-08T00:56:07;25.05;;;11.00;;
4758;SDS011;2393;50.560;12.636;2024-03-08T00:58:37;31.25;;;12.90;;
4758;SDS011;2393;50.560;12.636;2024-03-08T01:01:05;29.45;;;12.70;;
4758;SDS011;2393;50.560;12.636;2024-03-08T01:03:36;41.83;;;14.07;;
4758;SDS011;2393;50.560;12.636;2024-03-08T01:06:05;32.05;;;13.52;;
4758;SDS011;2393;50.560;12.636;2024-03-08T01:08:34;28.20;;;12.45;;
4758;SDS011;2393;50.560;12.636;2024-03-08T01:11:05;31.23;;;13.60;;
4758;SDS011;2393;50.560;12.636;2024-03-08T01:13:34;28.52;;;13.25;;
4758;SDS011;2393;50.560;12.636;2024-03-08T01:16:03;37.33;;;14.27;;
4758;SDS011;2393;50.560;12.636;2024-03-08T01:18:32;29.85;;;11.18;;
4758;SDS011;2393;50.560;12.636;2024-03-08T01:21:02;29.58;;;13.30;;
4758;SDS011;2393;50.560;12.636;2024-03-08T01:23:31;26.35;;;10.43;;
4758;SDS011;2393;50.560;12.636;2024-03-08T01:26:01;38.92;;;14.82;;
4758;SDS011;2393;50.560;12.636;2024-03-08T01:28:30;27.00;;;13.05;;
4758;SDS011;2393;50.560;12.636;2024-03-08T01:31:00;31.08;;;13.63;;
4758;SDS011;2393;50.560;12.636;2024-03-08T01:33:30;26.65;;;12.07;;
4758;SDS011;2393;50.560;12.636;2024-03-08T01:35:58;32.25;;;14.27;;
4758;SDS011;2393;50.560;12.636;2024-03-08T01:38:28;25.83;;;12.95;;
4758;SDS011;2393;50.560;12.636;2024-03-08T01:40:57;27.73;;;12.73;;
4758;SDS011;2393;50.560;12.636;2024-03-08T01:43:27;33.65;;;13.98;;
4758;SDS011;2393;50.560;12.636;2024-03-08T01:45:56;29.60;;;13.05;;
4758;SDS011;2393;50.560;12.636;2024-03-08T01:48:26;31.10;;;13.27;;
4758;SDS011;2393;50.560;12.636;2024-03-08T01:50:56;29.15;;;14.77;;
4758;SDS011;2393;50.560;12.636;2024-03-08T01:53:25;29.42;;;14.60;;
4758;SDS011;2393;50.560;12.636;2024-03-08T01:55:57;31.90;;;12.73;;
4758;SDS011;2393;50.560;12.636;2024-03-08T01:58:26;35.20;;;15.77;;
4758;SDS011;2393;50.560;12.636;2024-03-08T02:00:56;29.63;;;13.75;;
4758;SDS011;2393;50.560;12.636;2024-03-08T02:03:25;37.25;;;15.32;;
4758;SDS011;2393;50.560;12.636;2024-03-08T02:05:54;30.20;;;14.07;;
4758;SDS011;2393;50.560;12.636;2024-03-08T02:08:23;41.85;;;14.40;;
4758;SDS011;2393;50.560;12.636;2024-03-08T02:10:52;28.58;;;12.50;;
4758;SDS011;2393;50.560;12.636;2024-03-08T02:13:22;34.13;;;12.80;;
4758;SDS011;2393;50.560;12.636;2024-03-08T02:15:51;31.70;;;15.48;;
4758;SDS011;2393;50.560;12.636;2024-03-08T02:18:21;33.83;;;12.57;;
4758;SDS011;2393;50.560;12.636;2024-03-08T02:20:52;35.30;;;14.23;;
4758;SDS011;2393;50.560;12.636;2024-03-08T02:23:22;30.35;;;13.88;;
4758;SDS011;2393;50.560;12.636;2024-03-08T02:25:53;33.95;;;14.55;;
4758;SDS011;2393;50.560;12.636;2024-03-08T02:28:23;26.10;;;12.40;;
4758;SDS011;2393;50.560;12.636;2024-03-08T02:30:52;31.17;;;13.43;;
4758;SDS011;2393;50.560;12.636;2024-03-08T02:33:22;35.42;;;14.40;;
4758;SDS011;2393;50.560;12.636;2024-03-08T02:35:53;30.63;;;12.98;;
4758;SDS011;2393;50.560;12.636;2024-03-08T02:38:22;32.40;;;13.18;;
4758;SDS011;2393;50.560;12.636;2024-03-08T02:40:52;33.95;;;13.77;;
4758;SDS011;2393;50.560;12.636;2024-03-08T02:43:21;26.13;;;12.48;;
4758;SDS011;2393;50.560;12.636;2024-03-08T02:45:51;30.52;;;13.15;;
4758;SDS011;2393;50.560;12.636;2024-03-08T02:48:20;34.20;;;15.00;;
4758;SDS011;2393;50.560;12.636;2024-03-08T02:50:50;37.97;;;15.43;;
4758;SDS011;2393;50.560;12.636;2024-03-08T02:53:20;30.42;;;14.45;;
4758;SDS011;2393;50.560;12.636;2024-03-08T02:55:51;31.50;;;13.48;;
4758;SDS011;2393;50.560;12.636;2024-03-08T02:58:20;24.55;;;10.82;;
4758;SDS011;2393;50.560;12.636;2024-03-08T03:00:48;27.65;;;12.57;;
4758;SDS011;2393;50.560;12.636;2024-03-08T03:03:17;26.10;;;11.77;;
4758;SDS011;2393;50.560;12.636;2024-03-08T03:05:46;25.63;;;12.63;;
4758;SDS011;2393;50.560;12.636;2024-03-08T03:08:16;25.77;;;11.73;;
4758;SDS011;2393;50.560;12.636;2024-03-08T03:10:46;34.03;;;15.02;;
4758;SDS011;2393;50.560;12.636;2024-03-08T03:13:14;25.90;;;11.75;;
4758;SDS011;2393;50.560;12.636;2024-03-08T03:15:43;28.70;;;12.52;;
4758;SDS011;2393;50.560;12.636;2024-03-08T03:18:11;38.72;;;15.75;;
4758;SDS011;2393;50.560;12.636;2024-03-08T03:20:40;28.05;;;13.48;;
4758;SDS011;2393;50.560;12.636;2024-03-08T03:23:10;35.42;;;14.52;;
4758;SDS011;2393;50.560;12.636;2024-03-08T03:25:43;39.28;;;13.70;;
4758;SDS011;2393;50.560;12.636;2024-03-08T03:28:12;34.42;;;14.60;;
4758;SDS011;2393;50.560;12.636;2024-03-08T03:30:45;31.40;;;11.00;;
4758;SDS011;2393;50.560;12.636;2024-03-08T03:33:15;33.88;;;14.40;;
4758;SDS011;2393;50.560;12.636;2024-03-08T03:35:44;35.67;;;14.18;;
4758;SDS011;2393;50.560;12.636;2024-03-08T03:38:13;34.65;;;14.55;;
4758;SDS011;2393;50.560;12.636;2024-03-08T03:40:41;29.48;;;13.57;;
4758;SDS011;2393;50.560;12.636;2024-03-08T03:43:12;34.05;;;15.35;;
4758;SDS011;2393;50.560;12.636;2024-03-08T03:45:41;43.78;;;15.68;;
4758;SDS011;2393;50.560;12.636;2024-03-08T03:48:10;37.17;;;14.00;;
4758;SDS011;2393;50.560;12.636;2024-03-08T03:50:39;31.33;;;15.10;;
4758;SDS011;2393;50.560;12.636;2024-03-08T03:53:08;31.63;;;13.57;;
4758;SDS011;2393;50.560;12.636;2024-03-08T03:55:38;31.35;;;13.15;;
4758;SDS011;2393;50.560;12.636;2024-03-08T03:58:09;33.70;;;14.48;;
4758;SDS011;2393;50.560;12.636;2024-03-08T04:00:38;27.60;;;12.82;;
4758;SDS011;2393;50.560;12.636;2024-03-08T04:03:07;25.25;;;12.68;;
4758;SDS011;2393;50.560;12.636;2024-03-08T04:05:36;27.60;;;13.23;;
4758;SDS011;2393;50.560;12.636;2024-03-08T04:08:04;35.65;;;14.20;;
4758;SDS011;2393;50.560;12.636;2024-03-08T04:10:33;35.25;;;13.55;;
4758;SDS011;2393;50.560;12.636;2024-03-08T04:13:01;30.33;;;13.88;;
4758;SDS011;2393;50.560;12.636;2024-03-08T04:15:32;35.78;;;13.10;;
4758;SDS011;2393;50.560;12.636;2024-03-08T04:18:00;27.00;;;13.43;;
4758;SDS011;2393;50.560;12.636;2024-03-08T04:20:29;32.70;;;14.05;;
4758;SDS011;2393;50.560;12.636;2024-03-08T04:22:58;29.58;;;14.25;;
4758;SDS011;2393;50.560;12.636;2024-03-08T04:25:27;30.33;;;11.50;;
4758;SDS011;2393;50.560;12.636;2024-03-08T04:27:56;32.60;;;12.07;;
4758;SDS011;2393;50.560;12.636;2024-03-08T04:30:24;26.25;;;12.73;;
4758;SDS011;2393;50.560;12.636;2024-03-08T04:32:56;25.00;;;11.50;;
4758;SDS011;2393;50.560;12.636;2024-03-08T04:35:24;24.77;;;11.68;;
4758;SDS011;2393;50.560;12.636;2024-03-08T04:37:53;32.83;;;12.45;;
4758;SDS011;2393;50.560;12.636;2024-03-08T04:40:24;30.30;;;12.25;;
4758;SDS011;2393;50.560;12.636;2024-03-08T04:42:53;26.58;;;12.55;;
4758;SDS011;2393;50.560;12.636;2024-03-08T04:45:22;29.85;;;12.50;;
4758;SDS011;2393;50.560;12.636;2024-03-08T04:47:52;32.67;;;14.00;;
4758;SDS011;2393;50.560;12.636;2024-03-08T04:50:23;23.92;;;11.68;;
4758;SDS011;2393;50.560;12.636;2024-03-08T04:52:51;24.70;;;12.15;;
4758;SDS011;2393;50.560;12.636;2024-03-08T04:55:20;28.30;;;12.05;;
4758;SDS011;2393;50.560;12.636;2024-03-08T04:57:49;36.55;;;14.10;;
4758;SDS011;2393;50.560;12.636;2024-03-08T05:00:18;28.30;;;12.95;;
4758;SDS011;2393;50.560;12.636;2024-03-08T05:02:47;25.35;;;11.70;;
4758;SDS011;2393;50.560;12.636;2024-03-08T05:05:20;24.92;;;10.45;;
4758;SDS011;2393;50.560;12.636;2024-03-08T05:07:51;33.40;;;13.32;;
4758;SDS011;2393;50.560;12.636;2024-03-08T05:10:20;29.50;;;11.95;;
4758;SDS011;2393;50.560;12.636;2024-03-08T05:12:48;30.52;;;12.77;;
4758;SDS011;2393;50.560;12.636;2024-03-08T05:15:20;39.75;;;16.73;;
4758;SDS011;2393;50.560;12.636;2024-03-08T05:17:49;41.40;;;16.30;;
4758;SDS011;2393;50.560;12.636;2024-03-08T05:20:17;40.47;;;16.83;;
4758;SDS011;2393;50.560;12.636;2024-03-08T05:22:46;50.58;;;18.02;;
4758;SDS011;2393;50.560;12.636;2024-03-08T05:25:16;46.03;;;19.27;;
4758;SDS011;2393;50.560;12.636;2024-03-08T05:27:45;51.95;;;18.90;;
4758;SDS011;2393;50.560;12.636;2024-03-08T05:30:14;47.05;;;18.23;;
4758;SDS011;2393;50.560;12.636;2024-03-08T05:32:43;45.80;;;18.13;;
4758;SDS011;2393;50.560;12.636;2024-03-08T05:35:12;57.22;;;20.02;;
4758;SDS011;2393;50.560;12.636;2024-03-08T05:37:43;53.65;;;20.02;;
4758;SDS011;2393;50.560;12.636;2024-03-08T05:40:12;46.72;;;18.67;;
4758;SDS011;2393;50.560;12.636;2024-03-08T05:42:46;50.22;;;19.33;;
4758;SDS011;2393;50.560;12.636;2024-03-08T05:45:14;43.63;;;18.67;;
4758;SDS011;2393;50.560;12.636;2024-03-08T05:47:43;58.97;;;21.50;;
4758;SDS011;2393;50.560;12.636;2024-03-08T05:50:12;48.38;;;19.15;;
4758;SDS011;2393;50.560;12.636;2024-03-08T05:52:43;63.35;;;21.85;;
4758;SDS011;2393;50.560;12.636;2024-03-08T05:55:12;57.30;;;23.15;;
4758;SDS011;2393;50.560;12.636;2024-03-08T05:57:41;64.78;;;23.48;;
4758;SDS011;2393;50.560;12.636;2024-03-08T06:00:11;72.40;;;23.70;;
4758;SDS011;2393;50.560;12.636;2024-03-08T06:02:42;70.20;;;24.63;;
4758;SDS011;2393;50.560;12.636;2024-03-08T06:05:11;62.10;;;25.20;;
4758;SDS011;2393;50.560;12.636;2024-03-08T06:07:39;65.05;;;26.13;;
4758;SDS011;2393;50.560;12.636;2024-03-08T06:10:08;65.45;;;24.08;;
4758;SDS011;2393;50.560;12.636;2024-03-08T06:12:39;73.43;;;23.63;;
4758;SDS011;2393;50.560;12.636;2024-03-08T06:15:09;77.57;;;25.10;;
4758;SDS011;2393;50.560;12.636;2024-03-08T06:17:42;68.10;;;23.50;;
4758;SDS011;2393;50.560;12.636;2024-03-08T06:20:11;67.38;;;22.42;;
4758;SDS011;2393;50.560;12.636;2024-03-08T06:22:40;61.78;;;22.27;;
4758;SDS011;2393;50.560;12.636;2024-03-08T06:25:09;49.88;;;21.63;;
4758;SDS011;2393;50.560;12.636;2024-03-08T06:27:40;58.67;;;21.70;;
4758;SDS011;2393;50.560;12.636;2024-03-08T06:30:11;52.53;;;21.73;;
4758;SDS011;2393;50.560;12.636;2024-03-08T06:32:42;55.22;;;20.77;;
4758;SDS011;2393;50.560;12.636;2024-03-08T06:35:11;51.20;;;19.67;;
4758;SDS011;2393;50.560;12.636;2024-03-08T06:37:43;56.78;;;20.52;;
4758;SDS011;2393;50.560;12.636;2024-03-08T06:40:12;51.40;;;22.20;;
4758;SDS011;2393;50.560;12.636;2024-03-08T06:42:41;42.40;;;19.23;;
4758;SDS011;2393;50.560;12.636;2024-03-08T06:45:12;43.83;;;20.48;;
4758;SDS011;2393;50.560;12.636;2024-03-08T06:47:45;46.65;;;20.58;;
4758;SDS011;2393;50.560;12.636;2024-03-08T06:50:14;45.33;;;18.70;;
4758;SDS011;2393;50.560;12.636;2024-03-08T06:52:43;47.30;;;19.45;;
4758;SDS011;2393;50.560;12.636;2024-03-08T06:55:14;42.25;;;15.70;;
4758;SDS011;2393;50.560;12.636;2024-03-08T06:57:44;44.72;;;19.25;;
4758;SDS011;2393;50.560;12.636;2024-03-08T07:00:14;60.13;;;21.97;;
4758;SDS011;2393;50.560;12.636;2024-03-08T07:02:47;34.88;;;17.67;;
4758;SDS011;2393;50.560;12.636;2024-03-08T07:05:16;36.67;;;19.30;;
4758;SDS011;2393;50.560;12.636;2024-03-08T07:07:46;32.53;;;14.40;;
4758;SDS011;2393;50.560;12.636;2024-03-08T07:10:15;31.00;;;15.43;;
4758;SDS011;2393;50.560;12.636;2024-03-08T07:12:45;26.77;;;13.77;;
4758;SDS011;2393;50.560;12.636;2024-03-08T07:15:15;28.20;;;15.10;;
4758;SDS011;2393;50.560;12.636;2024-03-08T07:17:46;29.63;;;12.43;;
4758;SDS011;2393;50.560;12.636;2024-03-08T07:20:15;21.73;;;11.97;;
4758;SDS011;2393;50.560;12.636;2024-03-08T07:22:45;27.97;;;13.13;;
4758;SDS011;2393;50.560;12.636;2024-03-08T07:25:17;26.07;;;12.77;;
4758;SDS011;2393;50.560;12.636;2024-03-08T07:27:50;24.30;;;12.23;;
4758;SDS011;2393;50.560;12.636;2024-03-08T07:30:21;23.67;;;12.97;;
4758;SDS011;2393;50.560;12.636;2024-03-08T07:33:09;20.13;;;11.17;;
4758;SDS011;2393;50.560;12.636;2024-03-08T07:35:40;25.27;;;14.17;;
4758;SDS011;2393;50.560;12.636;2024-03-08T07:38:11;26.97;;;13.53;;
4758;SDS011;2393;50.560;12.636;2024-03-08T07:40:40;21.07;;;12.10;;
4758;SDS011;2393;50.560;12.636;2024-03-08T07:43:11;21.70;;;11.43;;
4758;SDS011;2393;50.560;12.636;2024-03-08T07:45:41;24.73;;;12.60;;
4758;SDS011;2393;50.560;12.636;2024-03-08T07:48:10;19.10;;;11.13;;
4758;SDS011;2393;50.560;12.636;2024-03-08T07:50:40;23.70;;;11.73;;
4758;SDS011;2393;50.560;12.636;2024-03-08T07:53:09;27.83;;;12.33;;
4758;SDS011;2393;50.560;12.636;2024-03-08T07:55:37;24.97;;;12.90;;
4758;SDS011;2393;50.560;12.636;2024-03-08T07:58:09;20.20;;;10.50;;
4758;SDS011;2393;50.560;12.636;2024-03-08T08:00:39;24.43;;;12.20;;
4758;SDS011;2393;50.560;12.636;2024-03-08T08:03:10;23.43;;;10.70;;
4758;SDS011;2393;50.560;12.636;2024-03-08T08:05:39;20.60;;;11.00;;
4758;SDS011;2393;50.560;12.636;2024-03-08T08:08:08;21.53;;;10.67;;
4758;SDS011;2393;50.560;12.636;2024-03-08T08:10:38;18.63;;;8.60;;
4758;SDS011;2393;50.560;12.636;2024-03-08T08:13:07;19.77;;;10.70;;
4758;SDS011;2393;50.560;12.636;2024-03-08T08:15:36;18.17;;;10.37;;
4758;SDS011;2393;50.560;12.636;2024-03-08T08:18:06;20.07;;;11.10;;
4758;SDS011;2393;50.560;12.636;2024-03-08T08:20:36;21.03;;;9.80;;
4758;SDS011;2393;50.560;12.636;2024-03-08T08:23:05;15.07;;;9.30;;
4758;SDS011;2393;50.560;12.636;2024-03-08T08:25:33;22.30;;;9.93;;
4758;SDS011;2393;50.560;12.636;2024-03-08T08:28:06;21.13;;;10.03;;
4758;SDS011;2393;50.560;12.636;2024-03-08T08:30:35;15.77;;;9.13;;
4758;SDS011;2393;50.560;12.636;2024-03-08T08:33:04;18.83;;;10.90;;
4758;SDS011;2393;50.560;12.636;2024-03-08T08:35:35;17.60;;;9.93;;
4758;SDS011;2393;50.560;12.636;2024-03-08T08:38:04;25.23;;;10.80;;
4758;SDS011;2393;50.560;12.636;2024-03-08T08:40:34;20.60;;;9.77;;
4758;SDS011;2393;50.560;12.636;2024-03-08T08:43:03;23.00;;;9.80;;
4758;SDS011;2393;50.560;12.636;2024-03-08T08:45:32;22.17;;;10.40;;
4758;SDS011;2393;50.560;12.636;2024-03-08T08:48:01;16.27;;;9.80;;
4758;SDS011;2393;50.560;12.636;2024-03-08T08:50:31;18.50;;;9.30;;
4758;SDS011;2393;50.560;12.636;2024-03-08T08:52:59;21.37;;;9.67;;
4758;SDS011;2393;50.560;12.636;2024-03-08T08:55:28;19.27;;;10.67;;
4758;SDS011;2393;50.560;12.636;2024-03-08T08:57:57;22.13;;;9.67;;
4758;SDS011;2393;50.560;12.636;2024-03-08T09:00:26;20.77;;;10.53;;
4758;SDS011;2393;50.560;12.636;2024-03-08T09:02:57;19.93;;;9.43;;
4758;SDS011;2393;50.560;12.636;2024-03-08T09:05:26;29.80;;;10.60;;
4758;SDS011;2393;50.560;12.636;2024-03-08T09:07:55;25.50;;;10.10;;
4758;SDS011;2393;50.560;12.636;2024-03-08T09:10:24;21.53;;;8.90;;
4758;SDS011;2393;50.560;12.636;2024-03-08T09:12:57;16.40;;;9.83;;
4758;SDS011;2393;50.560;12.636;2024-03-08T09:15:26;20.37;;;9.73;;
4758;SDS011;2393;50.560;12.636;2024-03-08T09:17:56;20.17;;;9.40;;
4758;SDS011;2393;50.560;12.636;2024-03-08T09:20:26;16.40;;;9.30;;
4758;SDS011;2393;50.560;12.636;2024-03-08T09:22:56;22.40;;;9.10;;
4758;SDS011;2393;50.560;12.636;2024-03-08T09:25:25;22.63;;;9.33;;
4758;SDS011;2393;50.560;12.636;2024-03-08T09:27:55;14.37;;;7.47;;
4758;SDS011;2393;50.560;12.636;2024-03-08T09:30:23;19.80;;;9.70;;
4758;SDS011;2393;50.560;12.636;2024-03-08T09:32:53;19.27;;;8.63;;
4758;SDS011;2393;50.560;12.636;2024-03-08T09:35:25;19.60;;;9.67;;
4758;SDS011;2393;50.560;12.636;2024-03-08T09:37:54;16.10;;;8.50;;
4758;SDS011;2393;50.560;12.636;2024-03-08T09:40:24;17.60;;;9.37;;
4758;SDS011;2393;50.560;12.636;2024-03-08T09:42:54;16.80;;;9.23;;
4758;SDS011;2393;50.560;12.636;2024-03-08T09:45:24;21.67;;;7.73;;
4758;SDS011;2393;50.560;12.636;2024-03-08T09:47:53;14.40;;;8.37;;
4758;SDS011;2393;50.560;12.636;2024-03-08T09:50:22;24.90;;;11.23;;
4758;SDS011;2393;50.560;12.636;2024-03-08T09:52:53;22.20;;;11.30;;
4758;SDS011;2393;50.560;12.636;2024-03-08T09:55:25;21.47;;;10.10;;
4758;SDS011;2393;50.560;12.636;2024-03-08T09:58:01;17.00;;;10.73;;
4758;SDS011;2393;50.560;12.636;2024-03-08T10:00:57;26.00;;;10.97;;
4758;SDS011;2393;50.560;12.636;2024-03-08T10:03:28;18.63;;;10.07;;
4758;SDS011;2393;50.560;12.636;2024-03-08T10:05:57;14.63;;;8.60;;
4758;SDS011;2393;50.560;12.636;2024-03-08T10:08:28;20.63;;;9.83;;
4758;SDS011;2393;50.560;12.636;2024-03-08T10:10:58;18.13;;;10.40;;
4758;SDS011;2393;50.560;12.636;2024-03-08T10:13:28;23.30;;;10.43;;
4758;SDS011;2393;50.560;12.636;2024-03-08T10:15:58;24.87;;;12.13;;
4758;SDS011;2393;50.560;12.636;2024-03-08T10:18:28;22.20;;;11.77;;
4758;SDS011;2393;50.560;12.636;2024-03-08T10:21:03;19.60;;;9.97;;
4758;SDS011;2393;50.560;12.636;2024-03-08T10:23:34;24.93;;;11.97;;
4758;SDS011;2393;50.560;12.636;2024-03-08T10:26:12;18.33;;;10.53;;
4758;SDS011;2393;50.560;12.636;2024-03-08T10:28:42;19.80;;;10.77;;
4758;SDS011;2393;50.560;12.636;2024-03-08T10:31:12;22.03;;;11.13;;
4758;SDS011;2393;50.560;12.636;2024-03-08T10:33:44;18.47;;;10.10;;
4758;SDS011;2393;50.560;12.636;2024-03-08T10:36:13;19.93;;;9.70;;
4758;SDS011;2393;50.560;12.636;2024-03-08T10:38:43;19.00;;;9.27;;
4758;SDS011;2393;50.560;12.636;2024-03-08T10:41:16;18.87;;;9.53;;
4758;SDS011;2393;50.560;12.636;2024-03-08T10:43:49;15.63;;;7.90;;
4758;SDS011;2393;50.560;12.636;2024-03-08T10:46:37;13.00;;;6.83;;
4758;SDS011;2393;50.560;12.636;2024-03-08T10:49:16;20.00;;;7.50;;
4758;SDS011;2393;50.560;12.636;2024-03-08T10:51:45;13.30;;;7.80;;
4758;SDS011;2393;50.560;12.636;2024-03-08T10:54:18;10.60;;;7.27;;
4758;SDS011;2393;50.560;12.636;2024-03-08T10:56:50;16.30;;;8.60;;
4758;SDS011;2393;50.560;12.636;2024-03-08T10:59:19;17.43;;;7.97;;
4758;SDS011;2393;50.560;12.636;2024-03-08T11:01:50;9.93;;;6.10;;
4758;SDS011;2393;50.560;12.636;2024-03-08T11:04:19;14.77;;;8.03;;
4758;SDS011;2393;50.560;12.636;2024-03-08T11:06:50;8.90;;;5.70;;
4758;SDS011;2393;50.560;12.636;2024-03-08T11:09:27;13.50;;;6.13;;
4758;SDS011;2393;50.560;12.636;2024-03-08T11:14:53;7.83;;;4.73;;
4758;SDS011;2393;50.560;12.636;2024-03-08T11:17:26;9.10;;;5.67;;
4758;SDS011;2393;50.560;12.636;2024-03-08T11:20:09;10.50;;;5.40;;
4758;SDS011;2393;50.560;12.636;2024-03-08T11:22:47;6.13;;;5.40;;
4758;SDS011;2393;50.560;12.636;2024-03-08T11:25:30;6.37;;;4.83;;
4758;SDS011;2393;50.560;12.636;2024-03-08T11:28:08;8.20;;;4.90;;
4758;SDS011;2393;50.560;12.636;2024-03-08T11:30:44;10.10;;;4.40;;
4758;SDS011;2393;50.560;12.636;2024-03-08T11:33:15;7.40;;;5.00;;
4758;SDS011;2393;50.560;12.636;2024-03-08T11:35:44;7.53;;;4.80;;
4758;SDS011;2393;50.560;12.636;2024-03-08T11:38:13;9.20;;;5.30;;
4758;SDS011;2393;50.560;12.636;2024-03-08T11:40:43;7.73;;;4.90;;
4758;SDS011;2393;50.560;12.636;2024-03-08T11:43:17;14.40;;;7.03;;
4758;SDS011;2393;50.560;12.636;2024-03-08T11:45:47;9.83;;;4.47;;
4758;SDS011;2393;50.560;12.636;2024-03-08T11:48:16;9.70;;;5.90;;
4758;SDS011;2393;50.560;12.636;2024-03-08T11:50:44;8.03;;;5.30;;
4758;SDS011;2393;50.560;12.636;2024-03-08T11:53:16;9.53;;;5.63;;
4758;SDS011;2393;50.560;12.636;2024-03-08T11:55:44;6.57;;;4.63;;
4758;SDS011;2393;50.560;12.636;2024-03-08T11:58:15;12.67;;;5.93;;
4758;SDS011;2393;50.560;12.636;2024-03-08T12:00:45;7.70;;;6.23;;
4758;SDS011;2393;50.560;12.636;2024-03-08T12:03:15;10.73;;;5.30;;
4758;SDS011;2393;50.560;12.636;2024-03-08T12:05:44;10.60;;;5.97;;
4758;SDS011;2393;50.560;12.636;2024-03-08T12:08:13;9.00;;;5.30;;
4758;SDS011;2393;50.560;12.636;2024-03-08T12:10:42;5.83;;;5.03;;
4758;SDS011;2393;50.560;12.636;2024-03-08T12:13:11;11.07;;;5.27;;
4758;SDS011;2393;50.560;12.636;2024-03-08T12:15:41;8.83;;;6.23;;
4758;SDS011;2393;50.560;12.636;2024-03-08T12:18:12;18.03;;;8.00;;
4758;SDS011;2393;50.560;12.636;2024-03-08T12:20:41;20.00;;;8.87;;
4758;SDS011;2393;50.560;12.636;2024-03-08T12:23:15;19.23;;;9.83;;
4758;SDS011;2393;50.560;12.636;2024-03-08T12:25:44;18.73;;;11.30;;
4758;SDS011;2393;50.560;12.636;2024-03-08T12:28:14;26.30;;;12.30;;
4758;SDS011;2393;50.560;12.636;2024-03-08T12:30:47;22.17;;;12.20;;
4758;SDS011;2393;50.560;12.636;2024-03-08T12:33:22;22.77;;;12.60;;
4758;SDS011;2393;50.560;12.636;2024-03-08T12:35:51;26.23;;;15.30;;
4758;SDS011;2393;50.560;12.636;2024-03-08T12:38:22;23.87;;;13.50;;
4758;SDS011;2393;50.560;12.636;2024-03-08T12:40:58;21.60;;;13.50;;
4758;SDS011;2393;50.560;12.636;2024-03-08T12:43:27;20.67;;;11.07;;
4758;SDS011;2393;50.560;12.636;2024-03-08T12:45:58;18.00;;;11.70;;
4758;SDS011;2393;50.560;12.636;2024-03-08T12:48:33;21.47;;;11.37;;
4758;SDS011;2393;50.560;12.636;2024-03-08T12:51:02;19.07;;;10.70;;
4758;SDS011;2393;50.560;12.636;2024-03-08T12:53:32;19.67;;;10.87;;
4758;SDS011;2393;50.560;12.636;2024-03-08T12:56:01;16.90;;;9.60;;
4758;SDS011;2393;50.560;12.636;2024-03-08T12:58:34;22.10;;;10.90;;
4758;SDS011;2393;50.560;12.636;2024-03-08T13:01:03;17.10;;;9.93;;
4758;SDS011;2393;50.560;12.636;2024-03-08T13:03:35;13.30;;;8.87;;
4758;SDS011;2393;50.560;12.636;2024-03-08T13:06:04;14.23;;;8.30;;
4758;SDS011;2393;50.560;12.636;2024-03-08T13:08:35;12.80;;;8.40;;
4758;SDS011;2393;50.560;12.636;2024-03-08T13:11:05;14.07;;;8.40;;
4758;SDS011;2393;50.560;12.636;2024-03-08T13:13:35;16.20;;;9.53;;
4758;SDS011;2393;50.560;12.636;2024-03-08T13:16:05;18.57;;;10.07;;
4758;SDS011;2393;50.560;12.636;2024-03-08T13:18:37;20.90;;;9.63;;
4758;SDS011;2393;50.560;12.636;2024-03-08T13:21:06;23.97;;;13.67;;
4758;SDS011;2393;50.560;12.636;2024-03-08T13:23:36;26.30;;;12.63;;
4758;SDS011;2393;50.560;12.636;2024-03-08T13:26:07;22.63;;;11.47;;
4758;SDS011;2393;50.560;12.636;2024-03-08T13:28:38;21.20;;;11.40;;
4758;SDS011;2393;50.560;12.636;2024-03-08T13:31:06;21.97;;;12.43;;
4758;SDS011;2393;50.560;12.636;2024-03-08T13:33:38;19.53;;;11.33;;
4758;SDS011;2393;50.560;12.636;2024-03-08T13:36:08;23.23;;;13.77;;
4758;SDS011;2393;50.560;12.636;2024-03-08T13:38:42;26.17;;;13.90;;
4758;SDS011;2393;50.560;12.636;2024-03-08T13:41:11;28.27;;;15.20;;
4758;SDS011;2393;50.560;12.636;2024-03-08T13:43:41;29.50;;;15.80;;
4758;SDS011;2393;50.560;12.636;2024-03-08T13:46:10;26.13;;;13.43;;
4758;SDS011;2393;50.560;12.636;2024-03-08T13:48:41;30.10;;;14.17;;
4758;SDS011;2393;50.560;12.636;2024-03-08T13:51:09;23.13;;;12.17;;
4758;SDS011;2393;50.560;12.636;2024-03-08T13:53:42;26.87;;;15.27;;
4758;SDS011;2393;50.560;12.636;2024-03-08T13:56:11;31.90;;;12.73;;
4758;SDS011;2393;50.560;12.636;2024-03-08T13:58:41;23.77;;;14.30;;
4758;SDS011;2393;50.560;12.636;2024-03-08T14:01:11;28.13;;;15.37;;
4758;SDS011;2393;50.560;12.636;2024-03-08T14:03:41;31.70;;;15.47;;
4758;SDS011;2393;50.560;12.636;2024-03-08T14:06:09;29.77;;;15.57;;
4758;SDS011;2393;50.560;12.636;2024-03-08T14:08:49;24.53;;;12.70;;
4758;SDS011;2393;50.560;12.636;2024-03-08T14:11:17;28.53;;;14.50;;
4758;SDS011;2393;50.560;12.636;2024-03-08T14:13:46;25.10;;;14.03;;
4758;SDS011;2393;50.560;12.636;2024-03-08T14:16:16;29.20;;;14.70;;
4758;SDS011;2393;50.560;12.636;2024-03-08T14:18:46;25.23;;;13.93;;
4758;SDS011;2393;50.560;12.636;2024-03-08T14:21:14;26.90;;;15.30;;
4758;SDS011;2393;50.560;12.636;2024-03-08T14:23:44;27.53;;;14.30;;
4758;SDS011;2393;50.560;12.636;2024-03-08T14:26:15;30.93;;;15.37;;
4758;SDS011;2393;50.560;12.636;2024-03-08T14:28:43;33.23;;;16.53;;
4758;SDS011;2393;50.560;12.636;2024-03-08T14:31:12;39.13;;;16.30;;
4758;SDS011;2393;50.560;12.636;2024-03-08T14:33:47;32.43;;;15.17;;
4758;SDS011;2393;50.560;12.636;2024-03-08T14:36:16;32.63;;;17.70;;
4758;SDS011;2393;50.560;12.636;2024-03-08T14:38:46;31.03;;;17.80;;
4758;SDS011;2393;50.560;12.636;2024-03-08T14:41:15;48.00;;;19.80;;
4758;SDS011;2393;50.560;12.636;2024-03-08T14:43:44;35.77;;;15.80;;
4758;SDS011;2393;50.560;12.636;2024-03-08T14:46:14;34.60;;;16.80;;
4758;SDS011;2393;50.560;12.636;2024-03-08T14:48:44;33.00;;;16.43;;
4758;SDS011;2393;50.560;12.636;2024-03-08T14:51:18;28.23;;;14.80;;
4758;SDS011;2393;50.560;12.636;2024-03-08T14:53:49;28.83;;;15.57;;
4758;SDS011;2393;50.560;12.636;2024-03-08T14:56:17;32.23;;;16.23;;
4758;SDS011;2393;50.560;12.636;2024-03-08T14:58:46;42.37;;;20.17;;